Time;durP1;ratioP1;P1;durP2;ratioP2;P2;SDS_P1;SDS_P2;PMS_P1;PMS_P2;Temp;Humidity;BMP_temperature;BMP_pressure;BME280_temperature;BME280_humidity;BME280_pressure;Samples;Min_cycle;Max_cycle;Signal;HPM_P1;HPM_P2
2021/11/20 00:00:43;;;;;;;20.33;14.40;;;;;;;;;;772017;181;915936;-63
2021/11/20 00:03:09;;;;;;;16.17;14.00;;;;;;;;;;769680;180;919246;-64
2021/11/20 00:05:35;;;;;;;16.40;13.95;;;;;;;;;;766876;180;918811;-63
2021/11/20 00:08:01;;;;;;;20.57;13.97;;;;;;;;;;771503;181;919550;-64
2021/11/20 00:10:28;;;;;;;19.07;14.07;;;;;;;;;;770994;180;919283;-64
2021/11/20 00:12:55;;;;;;;17.30;14.30;;;;;;;;;;769717;180;929841;-64
2021/11/20 00:15:22;;;;;;;18.50;14.73;;;;;;;;;;773130;180;919714;-64
2021/11/20 00:17:49;;;;;;;18.47;13.80;;;;;;;;;;774926;179;918661;-64
2021/11/20 00:20:16;;;;;;;18.90;15.53;;;;;;;;;;766315;180;1378393;-64
2021/11/20 00:22:43;;;;;;;15.52;11.90;;;;;;;;;;767798;181;918060;-64
2021/11/20 00:25:10;;;;;;;18.33;13.83;;;;;;;;;;776723;180;918805;-64
2021/11/20 00:27:37;;;;;;;19.13;14.57;;;;;;;;;;775212;180;919477;-64
2021/11/20 00:30:11;;;;;;;16.17;14.33;;;;;;;;;;763527;181;919303;-63
2021/11/20 00:32:28;;;;;;;21.20;15.10;;;;;;;;;;763616;181;919588;-63
2021/11/20 00:35:03;;;;;;;18.73;13.90;;;;;;;;;;769502;181;918573;-64
2021/11/20 00:37:30;;;;;;;17.77;15.03;;;;;;;;;;770584;180;920572;-64
2021/11/20 00:39:55;;;;;;;18.63;13.90;;;;;;;;;;770965;180;918695;-65
2021/11/20 00:42:21;;;;;;;18.27;14.80;;;;;;;;;;770119;180;918852;-64
2021/11/20 00:44:47;;;;;;;20.63;14.43;;;;;;;;;;776344;180;918979;-64
2021/11/20 00:47:13;;;;;;;15.83;12.37;;;;;;;;;;766400;180;919541;-64
2021/11/20 00:49:39;;;;;;;21.17;14.93;;;;;;;;;;767334;180;918884;-64
2021/11/20 00:52:05;;;;;;;20.73;14.40;;;;;;;;;;771322;180;914816;-64
2021/11/20 00:54:31;;;;;;;18.23;14.50;;;;;;;;;;769135;180;915852;-64
2021/11/20 00:56:57;;;;;;;22.58;15.20;;;;;;;;;;769707;180;913691;-65
2021/11/20 00:59:23;;;;;;;18.70;13.77;;;;;;;;;;777729;180;918151;-64
2021/11/20 01:01:48;;;;;;;17.83;14.70;;;;;;;;;;767641;179;917096;-63
2021/11/20 01:04:15;;;;;;;16.57;12.97;;;;;;;;;;762337;180;921493;-63
2021/11/20 01:06:42;;;;;;;18.80;13.47;;;;;;;;;;765961;179;916274;-63
2021/11/20 01:09:08;;;;;;;19.40;14.23;;;;;;;;;;773695;180;918954;-63
2021/11/20 01:11:36;;;;;;;16.50;12.40;;;;;;;;;;771447;181;920287;-66
2021/11/20 01:14:03;;;;;;;16.23;12.90;;;;;;;;;;773497;180;919028;-64
2021/11/20 01:16:29;;;;;;;17.20;13.67;;;;;;;;;;775073;180;918025;-63
2021/11/20 01:18:55;;;;;;;16.47;13.37;;;;;;;;;;772691;180;919258;-64
2021/11/20 01:21:21;;;;;;;21.43;15.30;;;;;;;;;;774613;180;1021186;-63
2021/11/20 01:23:47;;;;;;;20.77;13.43;;;;;;;;;;775067;180;1021215;-63
2021/11/20 01:26:13;;;;;;;19.23;15.47;;;;;;;;;;776178;181;918409;-64
2021/11/20 01:28:39;;;;;;;17.83;15.13;;;;;;;;;;770294;180;918413;-64
2021/11/20 01:31:05;;;;;;;17.55;13.62;;;;;;;;;;771738;180;919031;-63
2021/11/20 01:33:31;;;;;;;20.00;15.00;;;;;;;;;;777429;179;919848;-63
2021/11/20 01:35:56;;;;;;;19.00;14.40;;;;;;;;;;768041;181;919399;-63
2021/11/20 01:38:22;;;;;;;19.83;14.27;;;;;;;;;;767662;180;919125;-63
2021/11/20 01:40:48;;;;;;;17.70;13.93;;;;;;;;;;773648;180;921565;-63
2021/11/20 01:43:14;;;;;;;19.30;15.30;;;;;;;;;;771296;180;920263;-64
2021/11/20 01:45:46;;;;;;;18.60;14.60;;;;;;;;;;770734;180;919900;-63
2021/11/20 01:48:26;;;;;;;16.97;13.83;;;;;;;;;;771847;180;919858;-63
2021/11/20 01:50:52;;;;;;;18.30;13.27;;;;;;;;;;768289;180;919938;-64
2021/11/20 01:53:18;;;;;;;18.30;13.03;;;;;;;;;;771535;180;919251;-66
2021/11/20 01:55:47;;;;;;;17.70;14.57;;;;;;;;;;770010;180;919437;-64
2021/11/20 01:58:12;;;;;;;16.48;12.73;;;;;;;;;;770557;180;918661;-64
2021/11/20 02:00:40;;;;;;;19.00;12.80;;;;;;;;;;771315;180;914639;-63
2021/11/20 02:03:08;;;;;;;18.17;12.20;;;;;;;;;;770248;180;916745;-63
2021/11/20 02:05:36;;;;;;;15.60;11.67;;;;;;;;;;772392;179;919129;-64
2021/11/20 02:08:18;;;;;;;15.67;12.47;;;;;;;;;;771104;180;919605;-64
2021/11/20 02:10:52;;;;;;;17.03;11.90;;;;;;;;;;764806;179;1012113;-63
2021/11/20 02:13:18;;;;;;;15.27;12.60;;;;;;;;;;775996;180;917958;-64
2021/11/20 02:15:44;;;;;;;18.43;13.23;;;;;;;;;;765758;180;1003727;-63
2021/11/20 02:18:10;;;;;;;17.83;12.40;;;;;;;;;;766991;180;919398;-64
2021/11/20 02:20:37;;;;;;;18.03;12.77;;;;;;;;;;764683;180;919069;-63
2021/11/20 02:23:05;;;;;;;16.47;12.30;;;;;;;;;;775977;180;898891;-63
2021/11/20 02:25:29;;;;;;;15.37;12.47;;;;;;;;;;770661;180;919753;-63
2021/11/20 02:27:55;;;;;;;17.70;12.77;;;;;;;;;;768261;180;919153;-65
2021/11/20 02:30:22;;;;;;;18.73;14.43;;;;;;;;;;772884;180;919417;-62
2021/11/20 02:32:50;;;;;;;20.80;14.37;;;;;;;;;;769435;181;921641;-63
2021/11/20 02:35:18;;;;;;;19.47;13.63;;;;;;;;;;770480;180;919375;-63
2021/11/20 02:37:42;;;;;;;21.30;12.97;;;;;;;;;;770168;180;918891;-62
2021/11/20 02:40:08;;;;;;;16.77;13.23;;;;;;;;;;768753;180;1020300;-67
2021/11/20 02:42:34;;;;;;;23.30;14.13;;;;;;;;;;765190;180;919502;-62
2021/11/20 02:45:00;;;;;;;19.43;13.07;;;;;;;;;;766406;180;918901;-63
2021/11/20 02:47:26;;;;;;;14.93;12.13;;;;;;;;;;774185;180;919034;-63
2021/11/20 02:49:52;;;;;;;18.37;13.20;;;;;;;;;;769748;180;919571;-63
2021/11/20 02:52:17;;;;;;;18.87;12.40;;;;;;;;;;770331;180;919264;-63
2021/11/20 02:54:43;;;;;;;21.20;13.70;;;;;;;;;;775248;180;920220;-63
2021/11/20 02:57:09;;;;;;;20.00;13.50;;;;;;;;;;768482;181;918700;-63
2021/11/20 02:59:35;;;;;;;19.43;13.30;;;;;;;;;;768680;180;919928;-63
2021/11/20 03:02:01;;;;;;;18.83;11.90;;;;;;;;;;774315;180;920018;-63
2021/11/20 03:04:26;;;;;;;21.10;13.97;;;;;;;;;;767453;180;919777;-63
2021/11/20 03:06:53;;;;;;;20.03;12.63;;;;;;;;;;770595;180;1021600;-63
2021/11/20 03:09:18;;;;;;;21.43;13.37;;;;;;;;;;775243;180;920046;-62
2021/11/20 03:11:44;;;;;;;17.67;13.27;;;;;;;;;;773177;180;918733;-63
2021/11/20 03:14:10;;;;;;;17.13;12.80;;;;;;;;;;769399;180;919805;-63
2021/11/20 03:16:36;;;;;;;16.80;11.33;;;;;;;;;;771961;178;919128;-63
2021/11/20 03:19:02;;;;;;;16.37;12.10;;;;;;;;;;777706;179;1345057;-63
2021/11/20 03:21:27;;;;;;;19.70;12.03;;;;;;;;;;769772;179;918991;-63
2021/11/20 03:23:53;;;;;;;22.27;13.00;;;;;;;;;;769064;180;918026;-64
2021/11/20 03:26:19;;;;;;;13.37;9.87;;;;;;;;;;776397;180;919031;-63
2021/11/20 03:28:45;;;;;;;14.60;10.47;;;;;;;;;;770217;179;918906;-63
2021/11/20 03:31:11;;;;;;;15.40;10.60;;;;;;;;;;770169;179;918380;-62
2021/11/20 03:33:37;;;;;;;17.62;11.38;;;;;;;;;;769339;180;919133;-62
2021/11/20 03:36:03;;;;;;;17.27;11.60;;;;;;;;;;764995;180;919041;-62
2021/11/20 03:38:28;;;;;;;24.47;12.80;;;;;;;;;;768671;181;919703;-63
2021/11/20 03:40:54;;;;;;;23.40;12.80;;;;;;;;;;768938;180;919979;-62
2021/11/20 03:43:20;;;;;;;16.53;11.27;;;;;;;;;;773391;180;918528;-62
2021/11/20 03:45:46;;;;;;;15.93;10.60;;;;;;;;;;770465;180;1021508;-63
2021/11/20 03:48:13;;;;;;;17.53;11.20;;;;;;;;;;768088;180;918583;-62
2021/11/20 03:50:38;;;;;;;20.17;11.33;;;;;;;;;;775540;180;917728;-62
2021/11/20 03:53:03;;;;;;;17.23;10.47;;;;;;;;;;765807;181;918844;-62
2021/11/20 03:55:29;;;;;;;25.27;14.50;;;;;;;;;;770935;180;960062;-63
2021/11/20 03:57:56;;;;;;;25.35;14.95;;;;;;;;;;773174;180;918657;-62
2021/11/20 04:00:21;;;;;;;27.83;15.70;;;;;;;;;;768691;182;919770;-63
2021/11/20 04:02:47;;;;;;;33.93;17.07;;;;;;;;;;771659;180;920248;-63
2021/11/20 04:05:13;;;;;;;29.73;16.45;;;;;;;;;;765435;180;919411;-63
2021/11/20 04:07:39;;;;;;;25.80;15.27;;;;;;;;;;774349;180;918248;-65
2021/11/20 04:10:05;;;;;;;28.07;15.70;;;;;;;;;;771528;180;1009097;-63
2021/11/20 04:12:31;;;;;;;21.83;14.25;;;;;;;;;;770620;180;918600;-64
2021/11/20 04:14:57;;;;;;;23.87;14.87;;;;;;;;;;771384;181;920151;-64
2021/11/20 04:17:23;;;;;;;31.63;16.20;;;;;;;;;;766713;180;919183;-64
2021/11/20 04:19:49;;;;;;;25.47;17.43;;;;;;;;;;771301;180;917214;-64
2021/11/20 04:22:14;;;;;;;30.30;15.83;;;;;;;;;;775071;180;919907;-64
2021/11/20 04:24:40;;;;;;;24.53;14.63;;;;;;;;;;765773;180;919526;-65
2021/11/20 04:27:06;;;;;;;28.23;16.80;;;;;;;;;;766715;180;919415;-63
2021/11/20 04:29:32;;;;;;;28.40;15.27;;;;;;;;;;771845;178;928638;-63
2021/11/20 04:31:58;;;;;;;30.20;16.90;;;;;;;;;;775602;180;918268;-63
2021/11/20 04:34:24;;;;;;;25.00;14.80;;;;;;;;;;770240;181;918440;-63
2021/11/20 04:36:50;;;;;;;28.23;15.93;;;;;;;;;;775736;179;918970;-64
2021/11/20 04:39:15;;;;;;;22.77;14.83;;;;;;;;;;782112;179;919090;-64
2021/11/20 04:41:41;;;;;;;29.50;13.57;;;;;;;;;;767677;180;919720;-64
2021/11/20 04:44:07;;;;;;;23.35;13.80;;;;;;;;;;766694;180;920087;-64
2021/11/20 04:46:33;;;;;;;25.33;15.40;;;;;;;;;;774160;180;917415;-64
2021/11/20 04:48:59;;;;;;;22.97;13.87;;;;;;;;;;767750;180;920651;-64
2021/11/20 04:51:25;;;;;;;23.17;13.67;;;;;;;;;;772814;180;918721;-64
2021/11/20 04:53:50;;;;;;;26.43;17.30;;;;;;;;;;770016;181;915655;-63
2021/11/20 04:56:17;;;;;;;27.73;14.93;;;;;;;;;;766930;183;912926;-64
2021/11/20 04:58:42;;;;;;;26.30;14.70;;;;;;;;;;771875;180;919640;-64
2021/11/20 05:01:08;;;;;;;28.47;15.20;;;;;;;;;;764081;180;914922;-64
2021/11/20 05:03:34;;;;;;;31.07;16.00;;;;;;;;;;760762;184;816498;-64
2021/11/20 05:06:00;;;;;;;22.93;15.40;;;;;;;;;;767953;180;920146;-64
2021/11/20 05:08:26;;;;;;;27.80;16.53;;;;;;;;;;768783;177;918859;-64
2021/11/20 05:10:51;;;;;;;23.67;13.40;;;;;;;;;;774847;180;918980;-63
2021/11/20 05:13:17;;;;;;;21.27;14.43;;;;;;;;;;763046;180;919743;-64
2021/11/20 05:15:43;;;;;;;25.65;14.75;;;;;;;;;;764704;181;919661;-65
2021/11/20 05:18:09;;;;;;;24.90;15.10;;;;;;;;;;773138;180;916257;-63
2021/11/20 05:20:35;;;;;;;25.53;15.33;;;;;;;;;;774610;180;916886;-64
2021/11/20 05:23:01;;;;;;;23.57;14.87;;;;;;;;;;767855;180;916501;-64
2021/11/20 05:25:27;;;;;;;23.33;14.57;;;;;;;;;;765808;180;914693;-64
2021/11/20 05:27:53;;;;;;;29.07;16.47;;;;;;;;;;770568;180;919437;-64
2021/11/20 05:30:22;;;;;;;20.93;14.90;;;;;;;;;;764235;181;915677;-64
2021/11/20 05:32:44;;;;;;;26.50;14.17;;;;;;;;;;767798;180;919678;-64
2021/11/20 05:35:10;;;;;;;26.73;15.47;;;;;;;;;;775302;180;923946;-64
2021/11/20 05:37:36;;;;;;;20.40;14.77;;;;;;;;;;768036;180;916014;-63
2021/11/20 05:40:03;;;;;;;29.10;13.97;;;;;;;;;;764545;180;915985;-64
2021/11/20 05:42:28;;;;;;;20.53;13.37;;;;;;;;;;776982;180;915106;-63
2021/11/20 05:44:54;;;;;;;24.60;14.80;;;;;;;;;;768577;180;915394;-64
2021/11/20 05:47:19;;;;;;;21.77;13.97;;;;;;;;;;771857;179;922047;-64
2021/11/20 05:49:45;;;;;;;28.58;15.18;;;;;;;;;;772414;178;911752;-63
2021/11/20 05:52:11;;;;;;;24.77;13.07;;;;;;;;;;770834;180;919212;-64
2021/11/20 05:54:37;;;;;;;20.03;13.03;;;;;;;;;;768332;178;1000118;-64
2021/11/20 05:57:03;;;;;;;28.47;14.33;;;;;;;;;;769765;180;918324;-64
2021/11/20 05:59:29;;;;;;;19.47;13.93;;;;;;;;;;777734;180;887460;-63
2021/11/20 06:01:55;;;;;;;24.60;12.90;;;;;;;;;;772204;180;920439;-65
2021/11/20 06:04:20;;;;;;;23.93;13.67;;;;;;;;;;772332;180;918629;-65
2021/11/20 06:06:46;;;;;;;21.23;13.33;;;;;;;;;;775507;180;918147;-65
2021/11/20 06:09:12;;;;;;;20.42;13.75;;;;;;;;;;765244;180;918909;-64
2021/11/20 06:11:38;;;;;;;22.23;14.93;;;;;;;;;;769081;180;920950;-64
2021/11/20 06:14:04;;;;;;;31.10;15.30;;;;;;;;;;770843;180;941837;-64
2021/11/20 06:16:30;;;;;;;24.63;15.00;;;;;;;;;;780767;179;947541;-65
2021/11/20 06:18:55;;;;;;;25.50;16.80;;;;;;;;;;770318;180;915423;-64
2021/11/20 06:21:21;;;;;;;22.17;14.20;;;;;;;;;;769950;180;914474;-65
2021/11/20 06:23:47;;;;;;;19.37;12.87;;;;;;;;;;776438;180;901546;-65
2021/11/20 06:26:13;;;;;;;24.60;15.33;;;;;;;;;;768559;180;914127;-64
2021/11/20 06:28:39;;;;;;;20.23;15.00;;;;;;;;;;767573;180;916228;-65
2021/11/20 06:31:05;;;;;;;23.23;13.87;;;;;;;;;;778533;180;623066;-64
2021/11/20 06:33:30;;;;;;;24.60;16.73;;;;;;;;;;768038;180;915549;-64
2021/11/20 06:35:56;;;;;;;19.70;14.13;;;;;;;;;;771179;180;920313;-64
2021/11/20 06:38:23;;;;;;;18.70;14.20;;;;;;;;;;774188;180;920112;-64
2021/11/20 06:40:49;;;;;;;18.70;13.13;;;;;;;;;;766993;182;919094;-64
2021/11/20 06:43:15;;;;;;;18.10;13.80;;;;;;;;;;768813;179;919226;-64
2021/11/20 06:45:40;;;;;;;20.40;14.67;;;;;;;;;;764202;181;1021825;-64
2021/11/20 06:48:06;;;;;;;22.37;14.30;;;;;;;;;;772828;180;919705;-64
2021/11/20 06:50:32;;;;;;;21.13;14.87;;;;;;;;;;770981;180;918515;-64
2021/11/20 06:52:58;;;;;;;20.58;14.82;;;;;;;;;;768546;179;1140283;-65
2021/11/20 06:55:24;;;;;;;24.27;16.30;;;;;;;;;;774839;179;918871;-64
2021/11/20 06:57:56;;;;;;;25.43;18.40;;;;;;;;;;766342;180;1636886;-65
2021/11/20 07:02:50;;;;;;;22.47;17.17;;;;;;;;;;768669;179;918634;-66
2021/11/20 07:05:18;;;;;;;25.07;16.23;;;;;;;;;;772339;179;920152;-65
2021/11/20 07:07:41;;;;;;;25.30;16.00;;;;;;;;;;769366;180;920304;-64
2021/11/20 07:10:08;;;;;;;29.13;16.47;;;;;;;;;;771218;180;920272;-64
2021/11/20 07:12:33;;;;;;;22.53;16.00;;;;;;;;;;777704;180;918341;-64
2021/11/20 07:14:59;;;;;;;23.60;16.83;;;;;;;;;;765933;180;923502;-64
2021/11/20 07:17:25;;;;;;;23.20;15.83;;;;;;;;;;769512;180;918967;-64
2021/11/20 07:19:51;;;;;;;24.50;15.90;;;;;;;;;;771706;180;919101;-65
2021/11/20 07:22:17;;;;;;;25.33;17.37;;;;;;;;;;773884;180;918702;-64
2021/11/20 07:24:43;;;;;;;23.80;15.43;;;;;;;;;;766654;181;919471;-65
2021/11/20 07:27:09;;;;;;;23.55;16.48;;;;;;;;;;764511;180;919707;-64
2021/11/20 07:29:34;;;;;;;24.27;16.90;;;;;;;;;;776540;180;919076;-64
2021/11/20 07:32:00;;;;;;;27.13;17.87;;;;;;;;;;768660;180;934860;-64
2021/11/20 07:34:26;;;;;;;26.13;17.93;;;;;;;;;;769704;179;919126;-66
2021/11/20 07:36:52;;;;;;;21.90;15.30;;;;;;;;;;771095;180;918993;-67
2021/11/20 07:39:18;;;;;;;25.00;17.43;;;;;;;;;;761227;182;918037;-65
2021/11/20 07:41:44;;;;;;;20.17;14.60;;;;;;;;;;759832;182;920308;-65
2021/11/20 07:44:10;;;;;;;24.23;16.43;;;;;;;;;;771047;181;920003;-64
2021/11/20 07:46:35;;;;;;;18.47;14.97;;;;;;;;;;768254;180;920596;-65
2021/11/20 07:49:04;;;;;;;22.00;15.45;;;;;;;;;;772597;180;919101;-64
2021/11/20 07:51:29;;;;;;;30.17;16.80;;;;;;;;;;771298;180;927526;-65
2021/11/20 07:53:54;;;;;;;24.40;15.67;;;;;;;;;;775942;180;919441;-65
2021/11/20 07:56:20;;;;;;;24.27;16.23;;;;;;;;;;771919;180;1020565;-65
2021/11/20 07:58:46;;;;;;;22.20;15.85;;;;;;;;;;773444;180;1202703;-65
2021/11/20 08:01:12;;;;;;;21.67;16.73;;;;;;;;;;775754;179;919375;-65
2021/11/20 08:03:38;;;;;;;22.53;16.40;;;;;;;;;;765543;181;920018;-65
2021/11/20 08:06:04;;;;;;;22.00;16.80;;;;;;;;;;763989;181;1022095;-63
2021/11/20 08:08:31;;;;;;;26.63;16.60;;;;;;;;;;770998;180;919208;-62
2021/11/20 08:10:55;;;;;;;26.33;18.83;;;;;;;;;;775238;179;906381;-63
2021/11/20 08:13:22;;;;;;;19.97;16.00;;;;;;;;;;771423;180;918895;-63
2021/11/20 08:15:48;;;;;;;30.70;21.27;;;;;;;;;;765525;179;919030;-63
2021/11/20 08:18:14;;;;;;;26.00;17.47;;;;;;;;;;770516;179;919366;-62
2021/11/20 08:20:40;;;;;;;23.55;17.08;;;;;;;;;;766907;180;918651;-62
2021/11/20 08:23:06;;;;;;;29.23;17.57;;;;;;;;;;766501;180;939414;-62
2021/11/20 08:25:31;;;;;;;26.80;17.30;;;;;;;;;;777278;179;918788;-63
2021/11/20 08:27:57;;;;;;;24.73;17.17;;;;;;;;;;765792;179;919617;-63
2021/11/20 08:30:23;;;;;;;24.13;18.50;;;;;;;;;;764900;180;917499;-63
2021/11/20 08:32:49;;;;;;;27.20;16.93;;;;;;;;;;778200;180;919066;-64
2021/11/20 08:35:15;;;;;;;26.37;17.73;;;;;;;;;;769136;179;916018;-64
2021/11/20 08:37:41;;;;;;;33.70;23.33;;;;;;;;;;768197;181;921812;-65
2021/11/20 08:40:07;;;;;;;29.37;18.20;;;;;;;;;;768225;180;919173;-64
2021/11/20 08:42:34;;;;;;;23.17;17.23;;;;;;;;;;769970;180;1022733;-65
2021/11/20 08:44:59;;;;;;;24.27;16.33;;;;;;;;;;766709;180;919751;-64
2021/11/20 08:47:25;;;;;;;25.37;18.23;;;;;;;;;;766937;180;919926;-64
2021/11/20 08:49:51;;;;;;;21.20;16.50;;;;;;;;;;774193;177;919438;-64
2021/11/20 08:52:16;;;;;;;26.53;18.87;;;;;;;;;;769837;181;919590;-64
2021/11/20 08:54:42;;;;;;;20.13;15.50;;;;;;;;;;765345;180;918072;-64
2021/11/20 08:57:08;;;;;;;16.33;13.40;;;;;;;;;;776174;180;919187;-63
2021/11/20 08:59:34;;;;;;;20.50;15.17;;;;;;;;;;771044;180;918435;-64
2021/11/20 09:02:00;;;;;;;24.10;16.58;;;;;;;;;;766284;182;918793;-63
2021/11/20 09:04:26;;;;;;;20.93;15.60;;;;;;;;;;765127;180;918793;-64
2021/11/20 09:06:51;;;;;;;23.03;14.93;;;;;;;;;;770534;180;917285;-65
2021/11/20 09:09:18;;;;;;;20.50;13.00;;;;;;;;;;767078;179;918294;-63
2021/11/20 09:11:44;;;;;;;19.00;14.47;;;;;;;;;;763294;180;918565;-63
2021/11/20 09:14:11;;;;;;;17.77;13.60;;;;;;;;;;774010;180;919154;-64
2021/11/20 09:16:38;;;;;;;17.87;13.47;;;;;;;;;;776333;180;919682;-63
2021/11/20 09:19:02;;;;;;;21.10;14.15;;;;;;;;;;772356;179;1021328;-63
2021/11/20 09:21:29;;;;;;;18.47;12.37;;;;;;;;;;774175;179;919023;-64
2021/11/20 09:23:54;;;;;;;14.60;11.67;;;;;;;;;;772966;179;918745;-63
2021/11/20 09:26:20;;;;;;;18.37;13.60;;;;;;;;;;770113;180;911161;-63
2021/11/20 09:28:46;;;;;;;16.43;12.13;;;;;;;;;;766915;180;919580;-63
2021/11/20 09:31:12;;;;;;;18.30;14.70;;;;;;;;;;768464;180;919695;-64
2021/11/20 09:33:37;;;;;;;18.17;13.80;;;;;;;;;;763142;180;919170;-64
2021/11/20 09:36:04;;;;;;;16.33;11.73;;;;;;;;;;763929;180;918211;-64
2021/11/20 09:38:30;;;;;;;16.27;13.40;;;;;;;;;;771347;181;919619;-64
2021/11/20 09:40:57;;;;;;;15.47;11.60;;;;;;;;;;765958;181;919152;-64
2021/11/20 09:43:23;;;;;;;13.50;11.43;;;;;;;;;;764227;177;919402;-64
2021/11/20 09:45:51;;;;;;;15.13;12.82;;;;;;;;;;770991;180;929168;-64
2021/11/20 09:48:16;;;;;;;14.87;12.10;;;;;;;;;;764109;180;919517;-64
2021/11/20 09:50:44;;;;;;;23.17;12.47;;;;;;;;;;755846;179;916204;-64
2021/11/20 09:53:08;;;;;;;14.53;10.90;;;;;;;;;;749733;184;916345;-63
2021/11/20 09:55:34;;;;;;;17.57;11.43;;;;;;;;;;766219;182;919544;-63
2021/11/20 09:58:04;;;;;;;15.80;11.53;;;;;;;;;;761343;183;918476;-64
2021/11/20 10:00:35;;;;;;;12.60;10.30;;;;;;;;;;775169;179;918331;-64
2021/11/20 10:03:01;;;;;;;11.20;10.00;;;;;;;;;;769673;180;919677;-63
2021/11/20 10:05:30;;;;;;;12.23;9.20;;;;;;;;;;773956;181;919127;-63
2021/11/20 10:08:02;;;;;;;12.90;10.40;;;;;;;;;;767155;180;920708;-63
2021/11/20 10:10:36;;;;;;;15.27;9.00;;;;;;;;;;770394;180;920305;-63
2021/11/20 10:13:07;;;;;;;13.07;9.47;;;;;;;;;;770066;180;920625;-64
2021/11/20 10:15:31;;;;;;;12.73;9.20;;;;;;;;;;777069;180;919387;-64
2021/11/20 10:17:57;;;;;;;12.83;9.73;;;;;;;;;;774127;180;914809;-64
2021/11/20 10:20:24;;;;;;;13.80;11.13;;;;;;;;;;768947;180;1019216;-64
2021/11/20 10:22:52;;;;;;;15.07;10.43;;;;;;;;;;775015;177;915917;-64
2021/11/20 10:25:20;;;;;;;12.33;11.03;;;;;;;;;;761410;180;918612;-64
2021/11/20 10:28:03;;;;;;;14.80;11.03;;;;;;;;;;773238;180;920542;-63
2021/11/20 10:30:31;;;;;;;16.10;10.80;;;;;;;;;;761352;180;902360;-63
2021/11/20 10:33:00;;;;;;;15.63;10.73;;;;;;;;;;763016;181;727650;-63
2021/11/20 10:35:28;;;;;;;14.60;11.70;;;;;;;;;;773458;180;919192;-62
2021/11/20 10:38:15;;;;;;;13.60;10.83;;;;;;;;;;760465;183;918822;-64
2021/11/20 10:40:56;;;;;;;17.57;9.90;;;;;;;;;;768747;180;918954;-63
2021/11/20 10:43:25;;;;;;;14.40;11.63;;;;;;;;;;770496;180;920480;-63
2021/11/20 10:45:50;;;;;;;21.37;12.63;;;;;;;;;;768949;180;919357;-64
2021/11/20 10:48:36;;;;;;;14.23;10.13;;;;;;;;;;769724;181;919404;-64
2021/11/20 10:51:08;;;;;;;12.23;10.43;;;;;;;;;;766374;179;1021488;-65
2021/11/20 10:53:33;;;;;;;12.80;8.90;;;;;;;;;;760178;181;919060;-65
2021/11/20 10:56:03;;;;;;;14.60;9.60;;;;;;;;;;772810;180;914919;-64
2021/11/20 10:58:35;;;;;;;14.17;9.80;;;;;;;;;;769267;180;919436;-64
2021/11/20 11:01:07;;;;;;;10.07;9.00;;;;;;;;;;768585;180;931204;-64
2021/11/20 11:03:34;;;;;;;10.88;9.30;;;;;;;;;;767338;180;920287;-66
2021/11/20 11:06:19;;;;;;;14.30;10.23;;;;;;;;;;771636;180;915441;-63
2021/11/20 11:08:45;;;;;;;13.20;9.17;;;;;;;;;;768657;179;919253;-64
2021/11/20 11:11:31;;;;;;;12.30;9.13;;;;;;;;;;767751;179;919898;-64
2021/11/20 11:14:15;;;;;;;14.70;10.10;;;;;;;;;;767811;179;919344;-63
2021/11/20 11:16:42;;;;;;;10.77;8.93;;;;;;;;;;772001;180;919423;-64
2021/11/20 11:19:09;;;;;;;11.80;8.73;;;;;;;;;;759438;181;919269;-63
2021/11/20 11:21:39;;;;;;;11.10;8.70;;;;;;;;;;764066;181;920100;-63
2021/11/20 11:24:08;;;;;;;12.63;8.50;;;;;;;;;;774277;180;919143;-64
2021/11/20 11:26:34;;;;;;;8.63;7.30;;;;;;;;;;768660;180;919980;-64
2021/11/20 11:29:02;;;;;;;11.60;8.37;;;;;;;;;;769181;180;990325;-65
2021/11/20 11:31:30;;;;;;;12.53;8.37;;;;;;;;;;769416;180;918823;-65
2021/11/20 11:33:57;;;;;;;11.83;7.27;;;;;;;;;;763792;180;2065908;-66
2021/11/20 11:36:25;;;;;;;11.40;9.00;;;;;;;;;;770206;180;657873;-65
2021/11/20 11:38:54;;;;;;;8.80;7.87;;;;;;;;;;772441;179;919162;-64
2021/11/20 11:41:20;;;;;;;9.53;7.27;;;;;;;;;;764551;180;918275;-66
2021/11/20 11:43:47;;;;;;;9.13;7.97;;;;;;;;;;772318;180;912585;-64
2021/11/20 11:46:11;;;;;;;10.00;7.73;;;;;;;;;;771471;179;919298;-64
2021/11/20 11:48:54;;;;;;;12.90;8.10;;;;;;;;;;772398;180;632998;-65
2021/11/20 11:51:20;;;;;;;12.63;9.67;;;;;;;;;;767713;180;917423;-64
2021/11/20 11:53:52;;;;;;;12.97;10.67;;;;;;;;;;774970;179;661039;-65
2021/11/20 11:56:23;;;;;;;18.53;12.00;;;;;;;;;;773830;180;629234;-65
2021/11/20 11:58:55;;;;;;;15.00;12.30;;;;;;;;;;773567;179;619851;-65
2021/11/20 12:01:24;;;;;;;17.63;12.17;;;;;;;;;;772476;180;617453;-64
2021/11/20 12:03:55;;;;;;;14.73;11.70;;;;;;;;;;771538;180;626735;-66
2021/11/20 12:06:34;;;;;;;18.07;13.00;;;;;;;;;;775593;180;637769;-64
2021/11/20 12:09:04;;;;;;;25.33;14.47;;;;;;;;;;766833;180;636317;-64
2021/11/20 12:11:31;;;;;;;17.80;13.03;;;;;;;;;;768233;179;668586;-64
2021/11/20 12:14:03;;;;;;;18.73;12.43;;;;;;;;;;771519;181;665915;-65
2021/11/20 12:16:30;;;;;;;17.50;12.20;;;;;;;;;;771727;180;644447;-64
2021/11/20 12:19:10;;;;;;;16.33;10.37;;;;;;;;;;776561;180;628833;-64
2021/11/20 12:21:39;;;;;;;20.03;10.80;;;;;;;;;;773621;180;632788;-64
2021/11/20 12:24:08;;;;;;;13.57;9.37;;;;;;;;;;769626;179;635062;-64
2021/11/20 12:26:37;;;;;;;21.03;12.77;;;;;;;;;;768284;180;618330;-65
2021/11/20 12:29:05;;;;;;;16.73;10.50;;;;;;;;;;768193;180;632034;-66
2021/11/20 12:31:33;;;;;;;16.50;11.17;;;;;;;;;;760227;183;630943;-65
2021/11/20 12:34:04;;;;;;;17.17;10.83;;;;;;;;;;761636;182;615374;-65
2021/11/20 12:36:46;;;;;;;17.73;10.57;;;;;;;;;;770579;181;695640;-65
2021/11/20 12:39:26;;;;;;;17.73;9.23;;;;;;;;;;767300;180;643210;-65
2021/11/20 12:41:56;;;;;;;13.53;9.20;;;;;;;;;;757482;179;618591;-66
2021/11/20 12:44:37;;;;;;;13.47;10.73;;;;;;;;;;771976;179;627543;-66
2021/11/20 12:47:08;;;;;;;13.57;8.70;;;;;;;;;;769371;181;621781;-65
2021/11/20 12:49:33;;;;;;;11.37;7.87;;;;;;;;;;777951;180;652007;-65
2021/11/20 12:52:04;;;;;;;13.90;9.60;;;;;;;;;;770202;180;621298;-64
2021/11/20 12:54:36;;;;;;;12.37;9.43;;;;;;;;;;773109;179;619852;-64
2021/11/20 12:57:03;;;;;;;13.00;8.50;;;;;;;;;;770854;180;625831;-64
2021/11/20 12:59:29;;;;;;;13.43;10.00;;;;;;;;;;775537;181;627988;-65
2021/11/20 13:01:58;;;;;;;17.33;8.57;;;;;;;;;;771596;180;620590;-66
2021/11/20 13:04:23;;;;;;;17.90;9.60;;;;;;;;;;771708;180;623623;-65
2021/11/20 13:06:51;;;;;;;14.93;9.87;;;;;;;;;;777637;180;634927;-65
2021/11/20 13:09:17;;;;;;;15.20;9.90;;;;;;;;;;773472;180;918931;-65
2021/11/20 13:11:46;;;;;;;14.40;9.20;;;;;;;;;;776886;180;621670;-66
2021/11/20 13:14:13;;;;;;;11.60;9.17;;;;;;;;;;771719;180;632816;-64
2021/11/20 13:16:44;;;;;;;13.63;9.17;;;;;;;;;;772069;181;672398;-64
2021/11/20 13:19:10;;;;;;;11.60;9.47;;;;;;;;;;767598;180;1260703;-65
2021/11/20 13:21:36;;;;;;;16.63;9.73;;;;;;;;;;773908;179;804684;-66
2021/11/20 13:24:02;;;;;;;14.63;9.17;;;;;;;;;;776048;179;681221;-64
2021/11/20 13:26:28;;;;;;;19.33;10.30;;;;;;;;;;784388;179;623047;-64
2021/11/20 13:28:54;;;;;;;15.33;10.47;;;;;;;;;;770573;179;629771;-65
2021/11/20 13:31:20;;;;;;;14.15;10.50;;;;;;;;;;764278;180;918252;-64
2021/11/20 13:33:45;;;;;;;19.50;12.20;;;;;;;;;;772725;180;921880;-64
2021/11/20 13:36:11;;;;;;;15.50;11.50;;;;;;;;;;770071;179;918723;-65
2021/11/20 13:38:37;;;;;;;19.17;11.60;;;;;;;;;;770433;180;636535;-64
2021/11/20 13:41:03;;;;;;;17.20;11.03;;;;;;;;;;775165;180;919773;-64
2021/11/20 13:43:29;;;;;;;16.60;11.50;;;;;;;;;;773298;180;630201;-64
2021/11/20 13:45:55;;;;;;;14.63;10.33;;;;;;;;;;772742;180;623777;-65
2021/11/20 13:48:21;;;;;;;13.80;12.03;;;;;;;;;;771543;180;920513;-63
2021/11/20 13:50:48;;;;;;;16.10;11.07;;;;;;;;;;768682;182;617081;-64
2021/11/20 13:53:15;;;;;;;18.20;12.07;;;;;;;;;;772189;179;629925;-64
2021/11/20 13:55:41;;;;;;;15.13;10.87;;;;;;;;;;769410;180;963094;-64
2021/11/20 13:58:06;;;;;;;17.37;11.57;;;;;;;;;;775491;181;621112;-64
2021/11/20 14:00:32;;;;;;;19.05;11.45;;;;;;;;;;771841;180;914583;-65
2021/11/20 14:02:58;;;;;;;19.43;11.73;;;;;;;;;;775028;180;626418;-64
2021/11/20 14:05:24;;;;;;;17.47;11.17;;;;;;;;;;778001;180;634930;-66
2021/11/20 14:07:56;;;;;;;15.60;11.17;;;;;;;;;;772971;180;621037;-65